sensor_id;sensor_type;location;lat;lon;timestamp;pressure;altitude;pressure_sealevel;temperature;humidity
81990;BME280;71485;51.638;-0.182;2024-01-11T00:00:37;102146.22;;;15.31;34.77
81990;BME280;71485;51.638;-0.182;2024-01-11T00:03:02;102147.14;;;15.26;34.81
81990;BME280;71485;51.638;-0.182;2024-01-11T00:05:28;102149.97;;;15.25;34.81
81990;BME280;71485;51.638;-0.182;2024-01-11T00:07:54;102152.99;;;15.20;34.85
81990;BME280;71485;51.638;-0.182;2024-01-11T00:10:20;102153.65;;;15.39;34.93
81990;BME280;71485;51.638;-0.182;2024-01-11T00:12:45;102154.18;;;15.11;34.97
81990;BME280;71485;51.638;-0.182;2024-01-11T00:15:11;102155.27;;;15.11;34.96
81990;BME280;71485;51.638;-0.182;2024-01-11T00:17:36;102156.55;;;15.10;34.97
81990;BME280;71485;51.638;-0.182;2024-01-11T00:20:02;102156.44;;;15.10;34.92
81990;BME280;71485;51.638;-0.182;2024-01-11T00:22:28;102156.43;;;15.30;34.96
81990;BME280;71485;51.638;-0.182;2024-01-11T00:24:55;102160.76;;;14.84;34.93
81990;BME280;71485;51.638;-0.182;2024-01-11T00:27:20;102158.96;;;15.05;34.92
81990;BME280;71485;51.638;-0.182;2024-01-11T00:29:45;102160.45;;;15.05;34.92
81990;BME280;71485;51.638;-0.182;2024-01-11T00:32:12;102163.81;;;15.27;34.88
81990;BME280;71485;51.638;-0.182;2024-01-11T00:34:36;102161.32;;;15.26;34.87
81990;BME280;71485;51.638;-0.182;2024-01-11T00:37:02;102166.32;;;15.25;34.88
81990;BME280;71485;51.638;-0.182;2024-01-11T00:39:29;102165.31;;;15.46;34.92
81990;BME280;71485;51.638;-0.182;2024-01-11T00:41:53;102164.26;;;14.98;34.88
81990;BME280;71485;51.638;-0.182;2024-01-11T00:44:19;102165.36;;;14.96;34.88
81990;BME280;71485;51.638;-0.182;2024-01-11T00:46:46;102170.24;;;15.18;34.87
81990;BME280;71485;51.638;-0.182;2024-01-11T00:49:11;102166.71;;;14.92;34.91
81990;BME280;71485;51.638;-0.182;2024-01-11T00:51:36;102166.53;;;15.16;34.90
81990;BME280;71485;51.638;-0.182;2024-01-11T00:54:05;102170.35;;;15.16;34.87
81990;BME280;71485;51.638;-0.182;2024-01-11T00:56:28;102171.57;;;14.91;34.86
81990;BME280;71485;51.638;-0.182;2024-01-11T00:58:55;102173.00;;;14.91;34.87
81990;BME280;71485;51.638;-0.182;2024-01-11T01:01:20;102173.27;;;14.89;34.91
81990;BME280;71485;51.638;-0.182;2024-01-11T01:03:45;102176.94;;;15.38;34.87
81990;BME280;71485;51.638;-0.182;2024-01-11T01:06:10;102181.70;;;15.12;34.89
81990;BME280;71485;51.638;-0.182;2024-01-11T01:08:36;102185.65;;;15.33;34.89
81990;BME280;71485;51.638;-0.182;2024-01-11T01:11:05;102186.72;;;15.02;34.97
81990;BME280;71485;51.638;-0.182;2024-01-11T01:13:28;102184.70;;;15.00;34.96
81990;BME280;71485;51.638;-0.182;2024-01-11T01:15:53;102185.94;;;14.77;34.94
81990;BME280;71485;51.638;-0.182;2024-01-11T01:18:21;102185.61;;;15.22;34.91
81990;BME280;71485;51.638;-0.182;2024-01-11T01:20:45;102184.46;;;14.94;34.96
81990;BME280;71485;51.638;-0.182;2024-01-11T01:23:10;102190.49;;;14.66;34.97
81990;BME280;71485;51.638;-0.182;2024-01-11T01:25:37;102194.41;;;14.67;34.95
81990;BME280;71485;51.638;-0.182;2024-01-11T01:28:02;102197.51;;;14.67;34.92
81990;BME280;71485;51.638;-0.182;2024-01-11T01:30:27;102200.35;;;15.15;34.90
81990;BME280;71485;51.638;-0.182;2024-01-11T01:32:53;102203.88;;;14.87;34.92
81990;BME280;71485;51.638;-0.182;2024-01-11T01:35:19;102210.93;;;14.84;34.91
81990;BME280;71485;51.638;-0.182;2024-01-11T01:37:46;102212.90;;;15.03;34.95
81990;BME280;71485;51.638;-0.182;2024-01-11T01:40:11;102214.73;;;14.78;34.95
81990;BME280;71485;51.638;-0.182;2024-01-11T01:42:42;102223.19;;;14.75;34.96
81990;BME280;71485;51.638;-0.182;2024-01-11T01:45:05;102225.24;;;14.95;34.98
81990;BME280;71485;51.638;-0.182;2024-01-11T01:47:34;102226.50;;;14.95;35.00
81990;BME280;71485;51.638;-0.182;2024-01-11T01:49:53;102227.85;;;14.72;34.96
81990;BME280;71485;51.638;-0.182;2024-01-11T01:52:21;102228.17;;;14.94;34.96
81990;BME280;71485;51.638;-0.182;2024-01-11T01:54:45;102233.89;;;14.89;35.01
81990;BME280;71485;51.638;-0.182;2024-01-11T01:57:11;102237.10;;;14.39;35.05
81990;BME280;71485;51.638;-0.182;2024-01-11T01:59:38;102239.18;;;15.08;35.05
81990;BME280;71485;51.638;-0.182;2024-01-11T02:02:04;102242.73;;;14.60;35.03
81990;BME280;71485;51.638;-0.182;2024-01-11T02:04:27;102246.02;;;14.83;35.04
81990;BME280;71485;51.638;-0.182;2024-01-11T02:06:54;102245.81;;;14.35;35.05
81990;BME280;71485;51.638;-0.182;2024-01-11T02:09:19;102254.71;;;14.85;34.99
81990;BME280;71485;51.638;-0.182;2024-01-11T02:11:48;102255.04;;;14.80;35.05
81990;BME280;71485;51.638;-0.182;2024-01-11T02:14:10;102253.31;;;14.58;35.02
81990;BME280;71485;51.638;-0.182;2024-01-11T02:16:36;102252.21;;;14.82;34.98
81990;BME280;71485;51.638;-0.182;2024-01-11T02:19:02;102254.62;;;14.55;35.02
81990;BME280;71485;51.638;-0.182;2024-01-11T02:21:28;102256.52;;;14.74;35.02
81990;BME280;71485;51.638;-0.182;2024-01-11T02:24:02;102261.10;;;14.24;35.06
81990;BME280;71485;51.638;-0.182;2024-01-11T02:26:20;102262.10;;;14.66;35.14
81990;BME280;71485;51.638;-0.182;2024-01-11T02:28:45;102264.85;;;14.65;35.15
81990;BME280;71485;51.638;-0.182;2024-01-11T02:31:11;102265.77;;;14.65;35.14
81990;BME280;71485;51.638;-0.182;2024-01-11T02:33:36;102266.18;;;14.66;35.10
81990;BME280;71485;51.638;-0.182;2024-01-11T02:36:02;102263.76;;;14.67;35.05
81990;BME280;71485;51.638;-0.182;2024-01-11T02:38:29;102260.15;;;14.44;35.04
81990;BME280;71485;51.638;-0.182;2024-01-11T02:40:55;102264.63;;;14.41;35.06
81990;BME280;71485;51.638;-0.182;2024-01-11T02:43:19;102265.07;;;14.62;35.08
81990;BME280;71485;51.638;-0.182;2024-01-11T02:45:47;102264.71;;;14.61;35.08
81990;BME280;71485;51.638;-0.182;2024-01-11T02:48:12;102265.02;;;14.59;35.08
81990;BME280;71485;51.638;-0.182;2024-01-11T02:50:36;102268.59;;;14.84;35.06
81990;BME280;71485;51.638;-0.182;2024-01-11T02:53:03;102274.73;;;14.35;35.06
81990;BME280;71485;51.638;-0.182;2024-01-11T02:55:27;102279.52;;;14.57;35.07
81990;BME280;71485;51.638;-0.182;2024-01-11T02:57:55;102281.44;;;14.57;35.09
81990;BME280;71485;51.638;-0.182;2024-01-11T03:00:19;102287.61;;;14.32;35.08
81990;BME280;71485;51.638;-0.182;2024-01-11T03:02:47;102289.75;;;14.55;35.05
81990;BME280;71485;51.638;-0.182;2024-01-11T03:05:10;102290.82;;;14.49;35.12
81990;BME280;71485;51.638;-0.182;2024-01-11T03:07:36;102290.68;;;14.74;35.10
81990;BME280;71485;51.638;-0.182;2024-01-11T03:10:02;102291.60;;;14.48;35.10
81990;BME280;71485;51.638;-0.182;2024-01-11T03:12:27;102298.37;;;14.47;35.12
81990;BME280;71485;51.638;-0.182;2024-01-11T03:14:53;102301.09;;;14.47;35.11
81990;BME280;71485;51.638;-0.182;2024-01-11T03:17:19;102301.01;;;14.46;35.11
81990;BME280;71485;51.638;-0.182;2024-01-11T03:19:47;102299.75;;;14.46;35.06
81990;BME280;71485;51.638;-0.182;2024-01-11T03:22:12;102296.91;;;14.44;35.09
81990;BME280;71485;51.638;-0.182;2024-01-11T03:24:38;102297.69;;;14.43;35.09
81990;BME280;71485;51.638;-0.182;2024-01-11T03:27:02;102298.87;;;14.44;35.06
81990;BME280;71485;51.638;-0.182;2024-01-11T03:29:27;102305.41;;;14.89;35.09
81990;BME280;71485;51.638;-0.182;2024-01-11T03:31:53;102303.94;;;14.39;35.11
81990;BME280;71485;51.638;-0.182;2024-01-11T03:34:20;102307.63;;;14.39;35.08
81990;BME280;71485;51.638;-0.182;2024-01-11T03:36:45;102310.01;;;14.43;35.02
81990;BME280;71485;51.638;-0.182;2024-01-11T03:39:12;102308.60;;;14.40;35.04
81990;BME280;71485;51.638;-0.182;2024-01-11T03:41:36;102310.08;;;14.37;35.03
81990;BME280;71485;51.638;-0.182;2024-01-11T03:44:02;102309.56;;;14.36;35.05
81990;BME280;71485;51.638;-0.182;2024-01-11T03:46:29;102315.59;;;14.34;35.05
81990;BME280;71485;51.638;-0.182;2024-01-11T03:48:54;102316.12;;;14.35;35.06
81990;BME280;71485;51.638;-0.182;2024-01-11T03:51:20;102321.29;;;14.36;35.03
81990;BME280;71485;51.638;-0.182;2024-01-11T03:53:47;102324.66;;;14.33;35.10
81990;BME280;71485;51.638;-0.182;2024-01-11T03:56:10;102325.82;;;14.35;35.04
81990;BME280;71485;51.638;-0.182;2024-01-11T03:58:37;102326.70;;;14.35;35.02
81990;BME280;71485;51.638;-0.182;2024-01-11T04:01:03;102327.92;;;14.55;35.11
81990;BME280;71485;51.638;-0.182;2024-01-11T04:03:27;102327.75;;;14.26;35.23
81990;BME280;71485;51.638;-0.182;2024-01-11T04:05:53;102331.73;;;14.05;35.21
81990;BME280;71485;51.638;-0.182;2024-01-11T04:08:19;102333.37;;;14.52;35.19
81990;BME280;71485;51.638;-0.182;2024-01-11T04:10:45;102335.17;;;14.50;35.20
81990;BME280;71485;51.638;-0.182;2024-01-11T04:13:10;102335.62;;;14.22;35.22
81990;BME280;71485;51.638;-0.182;2024-01-11T04:15:36;102340.42;;;14.22;35.18
81990;BME280;71485;51.638;-0.182;2024-01-11T04:18:02;102342.91;;;14.44;35.22
81990;BME280;71485;51.638;-0.182;2024-01-11T04:20:27;102345.51;;;14.42;35.20
81990;BME280;71485;51.638;-0.182;2024-01-11T04:22:54;102343.50;;;13.67;35.19
81990;BME280;71485;51.638;-0.182;2024-01-11T04:25:27;102346.21;;;14.15;35.15
81990;BME280;71485;51.638;-0.182;2024-01-11T04:27:45;102346.51;;;14.17;35.11
81990;BME280;71485;51.638;-0.182;2024-01-11T04:30:11;102348.22;;;14.43;35.05
81990;BME280;71485;51.638;-0.182;2024-01-11T04:32:36;102352.69;;;13.92;35.08
81990;BME280;71485;51.638;-0.182;2024-01-11T04:35:02;102351.41;;;14.39;35.06
81990;BME280;71485;51.638;-0.182;2024-01-11T04:37:27;102353.42;;;14.41;34.99
81990;BME280;71485;51.638;-0.182;2024-01-11T04:39:54;102355.72;;;14.23;34.89
81990;BME280;71485;51.638;-0.182;2024-01-11T04:42:19;102359.72;;;14.03;34.79
81990;BME280;71485;51.638;-0.182;2024-01-11T04:44:45;102364.39;;;14.28;34.74
81990;BME280;71485;51.638;-0.182;2024-01-11T04:47:12;102366.55;;;14.29;34.72
81990;BME280;71485;51.638;-0.182;2024-01-11T04:49:39;102366.30;;;14.28;34.76
81990;BME280;71485;51.638;-0.182;2024-01-11T04:52:04;102364.21;;;14.32;35.21
81990;BME280;71485;51.638;-0.182;2024-01-11T04:54:37;102364.30;;;14.54;35.74
81990;BME280;71485;51.638;-0.182;2024-01-11T04:56:53;102366.85;;;14.04;35.93
81990;BME280;71485;51.638;-0.182;2024-01-11T04:59:25;102367.10;;;14.26;36.06
81990;BME280;71485;51.638;-0.182;2024-01-11T05:01:51;102367.91;;;14.51;36.11
81990;BME280;71485;51.638;-0.182;2024-01-11T05:04:10;102368.40;;;14.27;36.18
81990;BME280;71485;51.638;-0.182;2024-01-11T05:06:36;102369.50;;;14.68;36.30
81990;BME280;71485;51.638;-0.182;2024-01-11T05:09:02;102374.92;;;14.38;36.49
81990;BME280;71485;51.638;-0.182;2024-01-11T05:11:27;102378.95;;;14.62;36.59
81990;BME280;71485;51.638;-0.182;2024-01-11T05:13:53;102384.02;;;14.14;36.69
81990;BME280;71485;51.638;-0.182;2024-01-11T05:16:20;102386.40;;;14.39;36.76
81990;BME280;71485;51.638;-0.182;2024-01-11T05:18:45;102386.38;;;14.21;36.74
81990;BME280;71485;51.638;-0.182;2024-01-11T05:21:10;102390.22;;;14.47;36.74
81990;BME280;71485;51.638;-0.182;2024-01-11T05:23:36;102391.59;;;14.50;36.78
81990;BME280;71485;51.638;-0.182;2024-01-11T05:26:03;102392.59;;;14.54;36.73
81990;BME280;71485;51.638;-0.182;2024-01-11T05:28:28;102395.06;;;14.56;36.72
81990;BME280;71485;51.638;-0.182;2024-01-11T05:30:53;102395.31;;;14.37;36.61
81990;BME280;71485;51.638;-0.182;2024-01-11T05:33:19;102397.37;;;14.40;36.58
81990;BME280;71485;51.638;-0.182;2024-01-11T05:35:45;102403.27;;;14.42;36.55
81990;BME280;71485;51.638;-0.182;2024-01-11T05:38:12;102408.44;;;14.46;36.51
81990;BME280;71485;51.638;-0.182;2024-01-11T05:40:36;102412.46;;;14.47;36.49
81990;BME280;71485;51.638;-0.182;2024-01-11T05:43:04;102413.92;;;14.47;36.51
81990;BME280;71485;51.638;-0.182;2024-01-11T05:45:31;102414.05;;;14.49;36.50
81990;BME280;71485;51.638;-0.182;2024-01-11T05:48:00;102417.11;;;14.51;36.47
81990;BME280;71485;51.638;-0.182;2024-01-11T05:50:19;102415.84;;;14.58;36.36
81990;BME280;71485;51.638;-0.182;2024-01-11T05:52:50;102420.03;;;14.35;36.36
81990;BME280;71485;51.638;-0.182;2024-01-11T05:55:10;102420.65;;;14.60;36.34
81990;BME280;71485;51.638;-0.182;2024-01-11T05:57:36;102426.31;;;14.61;36.33
81990;BME280;71485;51.638;-0.182;2024-01-11T06:00:07;102426.12;;;14.62;36.29
81990;BME280;71485;51.638;-0.182;2024-01-11T06:02:28;102429.84;;;14.88;36.30
81990;BME280;71485;51.638;-0.182;2024-01-11T06:04:53;102435.35;;;14.43;36.28
81990;BME280;71485;51.638;-0.182;2024-01-11T06:07:19;102436.42;;;14.71;36.26
81990;BME280;71485;51.638;-0.182;2024-01-11T06:09:45;102432.61;;;14.76;36.20
81990;BME280;71485;51.638;-0.182;2024-01-11T06:12:10;102436.98;;;14.79;36.19
81990;BME280;71485;51.638;-0.182;2024-01-11T06:14:36;102438.81;;;14.83;36.13
81990;BME280;71485;51.638;-0.182;2024-01-11T06:17:02;102446.20;;;14.63;36.00
81990;BME280;71485;51.638;-0.182;2024-01-11T06:19:28;102450.13;;;14.87;35.85
81990;BME280;71485;51.638;-0.182;2024-01-11T06:21:53;102454.48;;;14.40;35.72
81990;BME280;71485;51.638;-0.182;2024-01-11T06:24:23;102458.22;;;14.42;35.55
81990;BME280;71485;51.638;-0.182;2024-01-11T06:26:46;102462.81;;;14.68;35.31
81990;BME280;71485;51.638;-0.182;2024-01-11T06:29:10;102464.29;;;14.68;35.13
81990;BME280;71485;51.638;-0.182;2024-01-11T06:31:36;102465.27;;;14.65;35.02
81990;BME280;71485;51.638;-0.182;2024-01-11T06:34:01;102468.98;;;14.59;34.98
81990;BME280;71485;51.638;-0.182;2024-01-11T06:36:27;102466.00;;;14.55;34.92
81990;BME280;71485;51.638;-0.182;2024-01-11T06:38:58;102466.87;;;14.52;34.89
81990;BME280;71485;51.638;-0.182;2024-01-11T06:41:19;102468.98;;;14.26;34.84
81990;BME280;71485;51.638;-0.182;2024-01-11T06:43:45;102470.70;;;14.73;34.79
81990;BME280;71485;51.638;-0.182;2024-01-11T06:46:11;102475.39;;;14.70;34.76
81990;BME280;71485;51.638;-0.182;2024-01-11T06:48:37;102475.83;;;14.70;34.72
81990;BME280;71485;51.638;-0.182;2024-01-11T06:51:01;102480.06;;;14.41;34.73
81990;BME280;71485;51.638;-0.182;2024-01-11T06:53:30;102481.69;;;14.63;34.71
81990;BME280;71485;51.638;-0.182;2024-01-11T06:55:53;102485.90;;;14.14;34.71
81990;BME280;71485;51.638;-0.182;2024-01-11T06:58:21;102486.48;;;14.63;34.73
81990;BME280;71485;51.638;-0.182;2024-01-11T07:00:49;102488.69;;;14.65;34.76
81990;BME280;71485;51.638;-0.182;2024-01-11T07:03:10;102487.49;;;14.41;34.85
81990;BME280;71485;51.638;-0.182;2024-01-11T07:05:36;102487.76;;;14.62;34.92
81990;BME280;71485;51.638;-0.182;2024-01-11T07:08:02;102489.01;;;14.35;34.93
81990;BME280;71485;51.638;-0.182;2024-01-11T07:10:27;102493.85;;;14.60;34.91
81990;BME280;71485;51.638;-0.182;2024-01-11T07:12:53;102498.27;;;14.60;35.00
81990;BME280;71485;51.638;-0.182;2024-01-11T07:15:19;102499.95;;;14.37;35.05
81990;BME280;71485;51.638;-0.182;2024-01-11T07:17:45;102501.41;;;14.34;35.13
81990;BME280;71485;51.638;-0.182;2024-01-11T07:20:12;102501.40;;;14.35;35.11
81990;BME280;71485;51.638;-0.182;2024-01-11T07:22:36;102505.10;;;14.56;35.17
81990;BME280;71485;51.638;-0.182;2024-01-11T07:25:04;102505.33;;;14.56;35.18
81990;BME280;71485;51.638;-0.182;2024-01-11T07:27:28;102509.55;;;14.55;35.21
81990;BME280;71485;51.638;-0.182;2024-01-11T07:29:53;102511.78;;;14.31;35.25
81990;BME280;71485;51.638;-0.182;2024-01-11T07:32:19;102516.58;;;14.52;35.34
81990;BME280;71485;51.638;-0.182;2024-01-11T07:34:50;102515.22;;;14.69;35.54
81990;BME280;71485;51.638;-0.182;2024-01-11T07:37:11;102514.89;;;14.43;35.60
81990;BME280;71485;51.638;-0.182;2024-01-11T07:39:38;102519.30;;;14.40;35.78
81990;BME280;71485;51.638;-0.182;2024-01-11T07:42:01;102518.57;;;14.62;35.88
81990;BME280;71485;51.638;-0.182;2024-01-11T07:44:27;102519.53;;;14.16;35.93
81990;BME280;71485;51.638;-0.182;2024-01-11T07:46:54;102521.10;;;14.46;35.87
81990;BME280;71485;51.638;-0.182;2024-01-11T07:49:20;102525.92;;;14.51;35.78
81990;BME280;71485;51.638;-0.182;2024-01-11T07:51:44;102526.33;;;14.40;35.90
81990;BME280;71485;51.638;-0.182;2024-01-11T07:54:10;102528.05;;;14.14;35.96
81990;BME280;71485;51.638;-0.182;2024-01-11T07:56:35;102528.86;;;14.72;35.77
81990;BME280;71485;51.638;-0.182;2024-01-11T07:59:04;102528.04;;;14.51;35.65
81990;BME280;71485;51.638;-0.182;2024-01-11T08:01:30;102532.73;;;14.51;35.66
81990;BME280;71485;51.638;-0.182;2024-01-11T08:03:51;102533.40;;;14.02;35.70
81990;BME280;71485;51.638;-0.182;2024-01-11T08:06:18;102534.12;;;14.44;35.75
81990;BME280;71485;51.638;-0.182;2024-01-11T08:08:43;102539.55;;;14.39;35.82
81990;BME280;71485;51.638;-0.182;2024-01-11T08:11:09;102544.18;;;14.36;35.87
81990;BME280;71485;51.638;-0.182;2024-01-11T08:13:34;102548.44;;;14.59;35.87
81990;BME280;71485;51.638;-0.182;2024-01-11T08:16:04;102553.41;;;14.35;35.92
81990;BME280;71485;51.638;-0.182;2024-01-11T08:18:25;102556.19;;;14.32;35.92
81990;BME280;71485;51.638;-0.182;2024-01-11T08:20:51;102562.80;;;14.31;35.93
81990;BME280;71485;51.638;-0.182;2024-01-11T08:23:17;102563.07;;;14.34;35.89
81990;BME280;71485;51.638;-0.182;2024-01-11T08:25:47;102565.51;;;14.56;35.91
81990;BME280;71485;51.638;-0.182;2024-01-11T08:28:08;102568.08;;;14.35;35.91
81990;BME280;71485;51.638;-0.182;2024-01-11T08:30:34;102573.74;;;14.35;35.92
81990;BME280;71485;51.638;-0.182;2024-01-11T08:32:59;102575.76;;;14.35;35.91
81990;BME280;71485;51.638;-0.182;2024-01-11T08:35:26;102580.10;;;14.57;36.06
81990;BME280;71485;51.638;-0.182;2024-01-11T08:37:50;102587.63;;;14.09;35.99
81990;BME280;71485;51.638;-0.182;2024-01-11T08:40:16;102594.06;;;14.57;36.07
81990;BME280;71485;51.638;-0.182;2024-01-11T08:42:42;102595.23;;;14.35;35.95
81990;BME280;71485;51.638;-0.182;2024-01-11T08:45:11;102596.16;;;14.38;35.97
81990;BME280;71485;51.638;-0.182;2024-01-11T08:47:34;102596.11;;;14.59;36.12
81990;BME280;71485;51.638;-0.182;2024-01-11T08:49:59;102604.85;;;14.64;37.33
81990;BME280;71485;51.638;-0.182;2024-01-11T08:52:33;102609.01;;;14.46;38.08
81990;BME280;71485;51.638;-0.182;2024-01-11T08:54:50;102605.62;;;14.02;38.28
81990;BME280;71485;51.638;-0.182;2024-01-11T08:57:15;102611.76;;;14.54;38.33
81990;BME280;71485;51.638;-0.182;2024-01-11T08:59:42;102612.17;;;14.68;38.39
81990;BME280;71485;51.638;-0.182;2024-01-11T09:02:07;102616.25;;;14.72;38.55
81990;BME280;71485;51.638;-0.182;2024-01-11T09:04:33;102615.82;;;14.54;38.26
81990;BME280;71485;51.638;-0.182;2024-01-11T09:06:59;102622.55;;;14.77;38.39
81990;BME280;71485;51.638;-0.182;2024-01-11T09:09:24;102622.52;;;14.82;38.42
81990;BME280;71485;51.638;-0.182;2024-01-11T09:11:51;102628.49;;;14.44;37.90
81990;BME280;71485;51.638;-0.182;2024-01-11T09:14:15;102632.85;;;14.62;37.80
81990;BME280;71485;51.638;-0.182;2024-01-11T09:16:41;102629.56;;;14.90;38.09
81990;BME280;71485;51.638;-0.182;2024-01-11T09:19:07;102639.85;;;14.67;39.39
81990;BME280;71485;51.638;-0.182;2024-01-11T09:21:32;102640.51;;;14.66;40.30
81990;BME280;71485;51.638;-0.182;2024-01-11T09:24:01;102641.46;;;14.68;40.57
81990;BME280;71485;51.638;-0.182;2024-01-11T09:26:25;102639.13;;;14.71;40.57
81990;BME280;71485;51.638;-0.182;2024-01-11T09:28:49;102633.70;;;14.25;40.51
81990;BME280;71485;51.638;-0.182;2024-01-11T09:31:15;102634.08;;;14.73;40.48
81990;BME280;71485;51.638;-0.182;2024-01-11T09:33:41;102637.94;;;14.73;40.28
81990;BME280;71485;51.638;-0.182;2024-01-11T09:36:10;102639.17;;;14.84;39.91
81990;BME280;71485;51.638;-0.182;2024-01-11T09:38:33;102645.13;;;14.60;39.72
81990;BME280;71485;51.638;-0.182;2024-01-11T09:41:06;102648.07;;;14.42;39.44
81990;BME280;71485;51.638;-0.182;2024-01-11T09:43:25;102652.54;;;14.69;39.28
81990;BME280;71485;51.638;-0.182;2024-01-11T09:45:50;102651.37;;;14.50;39.08
81990;BME280;71485;51.638;-0.182;2024-01-11T09:48:18;102652.35;;;14.53;38.93
81990;BME280;71485;51.638;-0.182;2024-01-11T09:50:41;102657.87;;;15.07;38.71
81990;BME280;71485;51.638;-0.182;2024-01-11T09:53:08;102656.10;;;14.66;38.50
81990;BME280;71485;51.638;-0.182;2024-01-11T09:55:32;102660.79;;;14.94;38.41
81990;BME280;71485;51.638;-0.182;2024-01-11T09:58:00;102659.02;;;14.68;38.38
81990;BME280;71485;51.638;-0.182;2024-01-11T10:00:24;102656.89;;;15.22;38.22
81990;BME280;71485;51.638;-0.182;2024-01-11T10:02:50;102661.10;;;14.83;38.00
81990;BME280;71485;51.638;-0.182;2024-01-11T10:05:16;102663.62;;;15.34;37.91
81990;BME280;71485;51.638;-0.182;2024-01-11T10:07:41;102668.33;;;14.82;37.97
81990;BME280;71485;51.638;-0.182;2024-01-11T10:10:07;102667.09;;;15.08;37.83
81990;BME280;71485;51.638;-0.182;2024-01-11T10:12:34;102667.81;;;15.10;37.71
81990;BME280;71485;51.638;-0.182;2024-01-11T10:15:05;102666.68;;;14.88;37.62
81990;BME280;71485;51.638;-0.182;2024-01-11T10:17:24;102667.34;;;14.91;37.53
81990;BME280;71485;51.638;-0.182;2024-01-11T10:19:49;102667.34;;;14.70;37.46
81990;BME280;71485;51.638;-0.182;2024-01-11T10:22:16;102672.38;;;15.02;37.31
81990;BME280;71485;51.638;-0.182;2024-01-11T10:24:42;102678.32;;;15.26;37.30
81990;BME280;71485;51.638;-0.182;2024-01-11T10:27:09;102680.62;;;15.09;37.25
81990;BME280;71485;51.638;-0.182;2024-01-11T10:29:33;102680.73;;;15.11;37.25
81990;BME280;71485;51.638;-0.182;2024-01-11T10:31:58;102681.08;;;15.13;37.33
81990;BME280;71485;51.638;-0.182;2024-01-11T10:34:23;102680.07;;;15.18;38.72
81990;BME280;71485;51.638;-0.182;2024-01-11T10:36:49;102688.27;;;15.23;39.10
81990;BME280;71485;51.638;-0.182;2024-01-11T10:39:17;102690.61;;;15.23;39.01
81990;BME280;71485;51.638;-0.182;2024-01-11T10:41:40;102689.94;;;15.27;38.98
81990;BME280;71485;51.638;-0.182;2024-01-11T10:44:14;102692.13;;;15.09;38.85
81990;BME280;71485;51.638;-0.182;2024-01-11T10:46:34;102695.02;;;15.33;38.68
81990;BME280;71485;51.638;-0.182;2024-01-11T10:48:59;102704.52;;;15.12;38.45
81990;BME280;71485;51.638;-0.182;2024-01-11T10:51:26;102711.94;;;15.42;38.29
81990;BME280;71485;51.638;-0.182;2024-01-11T10:53:53;102707.63;;;15.15;38.07
81990;BME280;71485;51.638;-0.182;2024-01-11T10:56:15;102714.36;;;15.47;37.96
81990;BME280;71485;51.638;-0.182;2024-01-11T10:58:42;102717.38;;;15.49;37.81
81990;BME280;71485;51.638;-0.182;2024-01-11T11:01:09;102720.64;;;15.50;37.68
81990;BME280;71485;51.638;-0.182;2024-01-11T11:03:33;102718.61;;;15.45;37.53
81990;BME280;71485;51.638;-0.182;2024-01-11T11:05:58;102720.33;;;15.28;37.25
81990;BME280;71485;51.638;-0.182;2024-01-11T11:08:23;102723.76;;;15.50;37.06
81990;BME280;71485;51.638;-0.182;2024-01-11T11:10:49;102724.72;;;14.97;37.02
81990;BME280;71485;51.638;-0.182;2024-01-11T11:13:14;102726.98;;;15.38;37.01
81990;BME280;71485;51.638;-0.182;2024-01-11T11:15:42;102733.38;;;15.32;37.09
81990;BME280;71485;51.638;-0.182;2024-01-11T11:18:09;102733.40;;;15.30;37.05
81990;BME280;71485;51.638;-0.182;2024-01-11T11:20:32;102737.53;;;15.50;37.04
81990;BME280;71485;51.638;-0.182;2024-01-11T11:23:05;102740.32;;;15.25;36.90
81990;BME280;71485;51.638;-0.182;2024-01-11T11:25:30;102743.57;;;15.24;36.89
81990;BME280;71485;51.638;-0.182;2024-01-11T11:27:48;102741.68;;;14.96;36.84
81990;BME280;71485;51.638;-0.182;2024-01-11T11:30:14;102739.86;;;15.26;36.57
81990;BME280;71485;51.638;-0.182;2024-01-11T11:32:43;102736.42;;;15.47;36.57
81990;BME280;71485;51.638;-0.182;2024-01-11T11:35:06;102742.28;;;15.16;36.64
81990;BME280;71485;51.638;-0.182;2024-01-11T11:37:31;102745.03;;;15.13;36.62
81990;BME280;71485;51.638;-0.182;2024-01-11T11:39:59;102745.16;;;15.42;36.53
81990;BME280;71485;51.638;-0.182;2024-01-11T11:42:22;102746.35;;;15.36;36.49
81990;BME280;71485;51.638;-0.182;2024-01-11T11:44:48;102751.40;;;15.07;36.59
81990;BME280;71485;51.638;-0.182;2024-01-11T11:47:19;102751.25;;;15.10;36.60
81990;BME280;71485;51.638;-0.182;2024-01-11T11:52:14;102750.78;;;15.15;36.32
81990;BME280;71485;51.638;-0.182;2024-01-11T11:54:30;102756.29;;;15.33;36.36
81990;BME280;71485;51.638;-0.182;2024-01-11T11:56:56;102756.64;;;15.08;36.48
81990;BME280;71485;51.638;-0.182;2024-01-11T11:59:24;102754.83;;;15.52;36.53
81990;BME280;71485;51.638;-0.182;2024-01-11T12:01:49;102753.66;;;15.12;36.52
81990;BME280;71485;51.638;-0.182;2024-01-11T12:04:14;102755.86;;;15.11;36.64
81990;BME280;71485;51.638;-0.182;2024-01-11T12:06:39;102758.82;;;15.38;36.69
81990;BME280;71485;51.638;-0.182;2024-01-11T12:09:04;102755.07;;;14.94;36.95
81990;BME280;71485;51.638;-0.182;2024-01-11T12:11:30;102751.60;;;15.33;36.86
81990;BME280;71485;51.638;-0.182;2024-01-11T12:13:57;102744.69;;;15.10;36.82
81990;BME280;71485;51.638;-0.182;2024-01-11T12:16:22;102745.57;;;15.31;36.85
81990;BME280;71485;51.638;-0.182;2024-01-11T12:18:49;102747.28;;;14.82;36.82
81990;BME280;71485;51.638;-0.182;2024-01-11T12:21:14;102740.54;;;15.17;36.70
81990;BME280;71485;51.638;-0.182;2024-01-11T12:23:40;102748.96;;;15.19;36.70
81990;BME280;71485;51.638;-0.182;2024-01-11T12:26:07;102750.84;;;15.14;36.80
81990;BME280;71485;51.638;-0.182;2024-01-11T12:28:31;102753.17;;;15.30;36.99
81990;BME280;71485;51.638;-0.182;2024-01-11T12:30:58;102751.89;;;15.04;37.07
81990;BME280;71485;51.638;-0.182;2024-01-11T12:33:21;102749.06;;;15.31;37.13